sensor_id;sensor_type;location;lat;lon;timestamp;temperature;humidity
47600;DHT22;33323;52.124;6.018;2023-03-04T00:00:07;5.50;99.90
47600;DHT22;33323;52.124;6.018;2023-03-04T00:02:37;5.40;99.90
47600;DHT22;33323;52.124;6.018;2023-03-04T00:05:05;5.40;99.90
47600;DHT22;33323;52.124;6.018;2023-03-04T00:07:32;5.40;99.90
47600;DHT22;33323;52.124;6.018;2023-03-04T00:09:59;5.40;99.90
47600;DHT22;33323;52.124;6.018;2023-03-04T00:12:26;5.40;99.90
47600;DHT22;33323;52.124;6.018;2023-03-04T00:14:53;5.40;99.90
47600;DHT22;33323;52.124;6.018;2023-03-04T00:17:20;5.50;99.90
47600;DHT22;33323;52.124;6.018;2023-03-04T00:19:47;5.40;99.90
47600;DHT22;33323;52.124;6.018;2023-03-04T00:22:14;5.40;99.90
47600;DHT22;33323;52.124;6.018;2023-03-04T00:24:41;5.40;99.90
47600;DHT22;33323;52.124;6.018;2023-03-04T00:27:08;5.50;99.90
47600;DHT22;33323;52.124;6.018;2023-03-04T00:29:35;5.50;99.90
47600;DHT22;33323;52.124;6.018;2023-03-04T00:32:02;5.40;99.90
47600;DHT22;33323;52.124;6.018;2023-03-04T00:34:30;5.40;99.90
47600;DHT22;33323;52.124;6.018;2023-03-04T00:36:58;5.50;99.90
47600;DHT22;33323;52.124;6.018;2023-03-04T00:39:27;5.40;99.90
47600;DHT22;33323;52.124;6.018;2023-03-04T00:41:54;5.50;99.90
47600;DHT22;33323;52.124;6.018;2023-03-04T00:44:21;5.40;99.90
47600;DHT22;33323;52.124;6.018;2023-03-04T00:46:48;5.40;99.90
47600;DHT22;33323;52.124;6.018;2023-03-04T00:49:15;5.40;99.90
47600;DHT22;33323;52.124;6.018;2023-03-04T00:51:42;5.40;99.90
47600;DHT22;33323;52.124;6.018;2023-03-04T00:54:09;5.40;99.90
47600;DHT22;33323;52.124;6.018;2023-03-04T00:56:36;5.40;99.90
47600;DHT22;33323;52.124;6.018;2023-03-04T00:59:03;5.40;99.90
47600;DHT22;33323;52.124;6.018;2023-03-04T01:01:31;5.40;99.90
47600;DHT22;33323;52.124;6.018;2023-03-04T01:03:58;5.40;99.90
47600;DHT22;33323;52.124;6.018;2023-03-04T01:06:25;5.40;99.90
47600;DHT22;33323;52.124;6.018;2023-03-04T01:08:52;5.40;99.90
47600;DHT22;33323;52.124;6.018;2023-03-04T01:11:19;5.40;99.90
47600;DHT22;33323;52.124;6.018;2023-03-04T01:13:46;5.40;99.90
47600;DHT22;33323;52.124;6.018;2023-03-04T01:16:14;5.40;99.90
47600;DHT22;33323;52.124;6.018;2023-03-04T01:18:41;5.40;99.90
47600;DHT22;33323;52.124;6.018;2023-03-04T01:21:08;5.40;99.90
47600;DHT22;33323;52.124;6.018;2023-03-04T01:23:35;5.40;99.90
47600;DHT22;33323;52.124;6.018;2023-03-04T01:26:02;5.40;99.90
47600;DHT22;33323;52.124;6.018;2023-03-04T01:28:29;5.30;99.90
47600;DHT22;33323;52.124;6.018;2023-03-04T01:30:56;5.40;99.90
47600;DHT22;33323;52.124;6.018;2023-03-04T01:33:23;5.40;99.90
47600;DHT22;33323;52.124;6.018;2023-03-04T01:35:50;5.30;99.90
47600;DHT22;33323;52.124;6.018;2023-03-04T01:38:17;5.30;99.90
47600;DHT22;33323;52.124;6.018;2023-03-04T01:40:44;5.30;99.90
47600;DHT22;33323;52.124;6.018;2023-03-04T01:43:22;5.30;99.90
47600;DHT22;33323;52.124;6.018;2023-03-04T01:45:52;5.30;99.90
47600;DHT22;33323;52.124;6.018;2023-03-04T01:48:28;5.30;99.90
47600;DHT22;33323;52.124;6.018;2023-03-04T01:50:57;5.30;99.90
47600;DHT22;33323;52.124;6.018;2023-03-04T01:53:31;5.40;99.90
47600;DHT22;33323;52.124;6.018;2023-03-04T01:56:23;5.30;99.90
47600;DHT22;33323;52.124;6.018;2023-03-04T01:59:11;5.30;99.90
47600;DHT22;33323;52.124;6.018;2023-03-04T02:01:45;5.30;99.90
47600;DHT22;33323;52.124;6.018;2023-03-04T02:04:19;5.30;99.90
47600;DHT22;33323;52.124;6.018;2023-03-04T02:06:49;5.40;99.90
47600;DHT22;33323;52.124;6.018;2023-03-04T02:09:17;5.40;99.90
47600;DHT22;33323;52.124;6.018;2023-03-04T02:11:45;5.40;99.90
47600;DHT22;33323;52.124;6.018;2023-03-04T02:14:15;5.40;99.90
47600;DHT22;33323;52.124;6.018;2023-03-04T02:16:43;5.30;99.90
47600;DHT22;33323;52.124;6.018;2023-03-04T02:22:24;5.30;99.90
47600;DHT22;33323;52.124;6.018;2023-03-04T02:24:55;5.30;99.90
47600;DHT22;33323;52.124;6.018;2023-03-04T02:27:24;5.30;99.90
47600;DHT22;33323;52.124;6.018;2023-03-04T02:29:51;5.30;99.90
47600;DHT22;33323;52.124;6.018;2023-03-04T02:32:18;5.30;99.90
47600;DHT22;33323;52.124;6.018;2023-03-04T02:34:50;5.30;99.90
47600;DHT22;33323;52.124;6.018;2023-03-04T02:37:19;5.30;99.90
47600;DHT22;33323;52.124;6.018;2023-03-04T02:39:50;5.20;99.90
47600;DHT22;33323;52.124;6.018;2023-03-04T02:42:17;5.20;99.90
47600;DHT22;33323;52.124;6.018;2023-03-04T02:44:45;5.30;99.90
47600;DHT22;33323;52.124;6.018;2023-03-04T02:47:17;5.30;99.90
47600;DHT22;33323;52.124;6.018;2023-03-04T02:49:46;5.30;99.90
47600;DHT22;33323;52.124;6.018;2023-03-04T02:52:21;5.30;99.90
47600;DHT22;33323;52.124;6.018;2023-03-04T02:54:49;5.30;99.90
47600;DHT22;33323;52.124;6.018;2023-03-04T02:57:17;5.30;99.90
47600;DHT22;33323;52.124;6.018;2023-03-04T02:59:48;5.30;99.90
47600;DHT22;33323;52.124;6.018;2023-03-04T03:02:19;5.20;99.90
47600;DHT22;33323;52.124;6.018;2023-03-04T03:04:46;5.20;99.90
47600;DHT22;33323;52.124;6.018;2023-03-04T03:07:16;5.30;99.90
47600;DHT22;33323;52.124;6.018;2023-03-04T03:09:43;5.20;99.90
47600;DHT22;33323;52.124;6.018;2023-03-04T03:12:10;5.20;99.90
47600;DHT22;33323;52.124;6.018;2023-03-04T03:14:37;5.20;99.90
47600;DHT22;33323;52.124;6.018;2023-03-04T03:17:07;5.30;99.90
47600;DHT22;33323;52.124;6.018;2023-03-04T03:19:34;5.20;99.90
47600;DHT22;33323;52.124;6.018;2023-03-04T03:22:03;5.30;99.90
47600;DHT22;33323;52.124;6.018;2023-03-04T03:24:31;5.20;99.90
47600;DHT22;33323;52.124;6.018;2023-03-04T03:26:58;5.30;99.90
47600;DHT22;33323;52.124;6.018;2023-03-04T03:29:25;5.30;99.90
47600;DHT22;33323;52.124;6.018;2023-03-04T03:31:52;5.30;99.90
47600;DHT22;33323;52.124;6.018;2023-03-04T03:34:20;5.20;99.90
47600;DHT22;33323;52.124;6.018;2023-03-04T03:36:47;5.30;99.90
47600;DHT22;33323;52.124;6.018;2023-03-04T03:39:15;5.30;99.90
47600;DHT22;33323;52.124;6.018;2023-03-04T03:41:42;5.20;99.90
47600;DHT22;33323;52.124;6.018;2023-03-04T03:44:09;5.20;99.90
47600;DHT22;33323;52.124;6.018;2023-03-04T03:46:36;5.20;99.90
47600;DHT22;33323;52.124;6.018;2023-03-04T03:49:03;5.20;99.90
47600;DHT22;33323;52.124;6.018;2023-03-04T03:51:30;5.20;99.90
47600;DHT22;33323;52.124;6.018;2023-03-04T03:53:57;5.20;99.90
47600;DHT22;33323;52.124;6.018;2023-03-04T03:56:23;5.20;99.90
47600;DHT22;33323;52.124;6.018;2023-03-04T03:58:50;5.20;99.90
47600;DHT22;33323;52.124;6.018;2023-03-04T04:01:17;5.20;99.90
47600;DHT22;33323;52.124;6.018;2023-03-04T04:03:44;5.20;99.90
47600;DHT22;33323;52.124;6.018;2023-03-04T04:06:12;5.20;99.90
47600;DHT22;33323;52.124;6.018;2023-03-04T04:08:39;5.20;99.90
47600;DHT22;33323;52.124;6.018;2023-03-04T04:11:08;5.30;99.90
47600;DHT22;33323;52.124;6.018;2023-03-04T04:13:35;5.30;99.90
47600;DHT22;33323;52.124;6.018;2023-03-04T04:16:05;5.30;99.90
47600;DHT22;33323;52.124;6.018;2023-03-04T04:18:33;5.30;99.90
47600;DHT22;33323;52.124;6.018;2023-03-04T04:21:00;5.20;99.90
47600;DHT22;33323;52.124;6.018;2023-03-04T04:23:27;5.30;99.90
47600;DHT22;33323;52.124;6.018;2023-03-04T04:25:55;5.30;99.90
47600;DHT22;33323;52.124;6.018;2023-03-04T04:28:23;5.20;99.90
47600;DHT22;33323;52.124;6.018;2023-03-04T04:30:50;5.20;99.90
47600;DHT22;33323;52.124;6.018;2023-03-04T04:33:17;5.20;99.90
47600;DHT22;33323;52.124;6.018;2023-03-04T04:35:44;5.20;99.90
47600;DHT22;33323;52.124;6.018;2023-03-04T04:38:11;5.20;99.90
47600;DHT22;33323;52.124;6.018;2023-03-04T04:40:38;5.30;99.90
47600;DHT22;33323;52.124;6.018;2023-03-04T04:43:05;5.30;99.90
47600;DHT22;33323;52.124;6.018;2023-03-04T04:45:33;5.30;99.90
47600;DHT22;33323;52.124;6.018;2023-03-04T04:48:00;5.20;99.90
47600;DHT22;33323;52.124;6.018;2023-03-04T04:50:27;5.20;99.90
47600;DHT22;33323;52.124;6.018;2023-03-04T04:52:58;5.20;99.90
47600;DHT22;33323;52.124;6.018;2023-03-04T04:55:25;5.20;99.90
47600;DHT22;33323;52.124;6.018;2023-03-04T04:57:52;5.30;99.90
47600;DHT22;33323;52.124;6.018;2023-03-04T05:00:19;5.20;99.90
47600;DHT22;33323;52.124;6.018;2023-03-04T05:02:46;5.20;99.90
47600;DHT22;33323;52.124;6.018;2023-03-04T05:05:13;5.30;99.90
47600;DHT22;33323;52.124;6.018;2023-03-04T05:07:40;5.30;99.90
47600;DHT22;33323;52.124;6.018;2023-03-04T05:10:08;5.30;99.90
47600;DHT22;33323;52.124;6.018;2023-03-04T05:12:36;5.30;99.90
47600;DHT22;33323;52.124;6.018;2023-03-04T05:15:03;5.30;99.90
47600;DHT22;33323;52.124;6.018;2023-03-04T05:17:30;5.20;99.90
47600;DHT22;33323;52.124;6.018;2023-03-04T05:19:57;5.20;99.90
47600;DHT22;33323;52.124;6.018;2023-03-04T05:22:24;5.20;99.90
47600;DHT22;33323;52.124;6.018;2023-03-04T05:24:51;5.20;99.90
47600;DHT22;33323;52.124;6.018;2023-03-04T05:27:18;5.20;99.90
47600;DHT22;33323;52.124;6.018;2023-03-04T05:29:45;5.20;99.90
47600;DHT22;33323;52.124;6.018;2023-03-04T05:32:12;5.20;99.90
47600;DHT22;33323;52.124;6.018;2023-03-04T05:34:39;5.20;99.90
47600;DHT22;33323;52.124;6.018;2023-03-04T05:37:06;5.20;99.90
47600;DHT22;33323;52.124;6.018;2023-03-04T05:39:33;5.20;99.90
47600;DHT22;33323;52.124;6.018;2023-03-04T05:42:00;5.20;99.90
47600;DHT22;33323;52.124;6.018;2023-03-04T05:44:27;5.20;99.90
47600;DHT22;33323;52.124;6.018;2023-03-04T05:46:54;5.20;99.90
47600;DHT22;33323;52.124;6.018;2023-03-04T05:49:21;5.20;99.90
47600;DHT22;33323;52.124;6.018;2023-03-04T05:51:48;5.30;99.90
47600;DHT22;33323;52.124;6.018;2023-03-04T05:54:15;5.20;99.90
47600;DHT22;33323;52.124;6.018;2023-03-04T05:56:44;5.30;99.90
47600;DHT22;33323;52.124;6.018;2023-03-04T05:59:11;5.30;99.90
47600;DHT22;33323;52.124;6.018;2023-03-04T06:01:38;5.20;99.90
47600;DHT22;33323;52.124;6.018;2023-03-04T06:04:05;5.20;99.90
47600;DHT22;33323;52.124;6.018;2023-03-04T06:06:32;5.30;99.90
47600;DHT22;33323;52.124;6.018;2023-03-04T06:08:59;5.20;99.90
47600;DHT22;33323;52.124;6.018;2023-03-04T06:11:26;5.20;99.90
47600;DHT22;33323;52.124;6.018;2023-03-04T06:13:53;5.20;99.90
47600;DHT22;33323;52.124;6.018;2023-03-04T06:16:20;5.20;99.90
47600;DHT22;33323;52.124;6.018;2023-03-04T06:18:47;5.20;99.90
47600;DHT22;33323;52.124;6.018;2023-03-04T06:21:14;5.20;99.90
47600;DHT22;33323;52.124;6.018;2023-03-04T06:23:41;5.10;99.90
47600;DHT22;33323;52.124;6.018;2023-03-04T06:26:09;5.10;99.90
47600;DHT22;33323;52.124;6.018;2023-03-04T06:28:41;5.20;99.90
47600;DHT22;33323;52.124;6.018;2023-03-04T06:31:09;5.20;99.90
47600;DHT22;33323;52.124;6.018;2023-03-04T06:33:38;5.20;99.90
47600;DHT22;33323;52.124;6.018;2023-03-04T06:36:05;5.20;99.90
47600;DHT22;33323;52.124;6.018;2023-03-04T06:38:32;5.20;99.90
47600;DHT22;33323;52.124;6.018;2023-03-04T06:41:10;5.20;99.90
47600;DHT22;33323;52.124;6.018;2023-03-04T06:43:38;5.20;99.90
47600;DHT22;33323;52.124;6.018;2023-03-04T06:46:07;5.20;99.90
47600;DHT22;33323;52.124;6.018;2023-03-04T06:48:34;5.20;99.90
47600;DHT22;33323;52.124;6.018;2023-03-04T06:51:06;5.30;99.90
47600;DHT22;33323;52.124;6.018;2023-03-04T06:53:35;5.30;99.90
47600;DHT22;33323;52.124;6.018;2023-03-04T06:56:03;5.30;99.90
47600;DHT22;33323;52.124;6.018;2023-03-04T06:58:31;5.40;99.90
47600;DHT22;33323;52.124;6.018;2023-03-04T07:01:18;5.40;99.90
47600;DHT22;33323;52.124;6.018;2023-03-04T07:03:47;5.40;99.90
47600;DHT22;33323;52.124;6.018;2023-03-04T07:06:17;5.40;99.90
47600;DHT22;33323;52.124;6.018;2023-03-04T07:08:45;5.50;99.90
47600;DHT22;33323;52.124;6.018;2023-03-04T07:11:13;5.40;99.90
47600;DHT22;33323;52.124;6.018;2023-03-04T07:13:41;5.40;99.90
47600;DHT22;33323;52.124;6.018;2023-03-04T07:16:15;5.50;99.90
47600;DHT22;33323;52.124;6.018;2023-03-04T07:18:45;5.60;99.90
47600;DHT22;33323;52.124;6.018;2023-03-04T07:21:14;5.60;99.90
47600;DHT22;33323;52.124;6.018;2023-03-04T07:23:42;5.60;99.90
47600;DHT22;33323;52.124;6.018;2023-03-04T07:26:09;5.60;99.90
47600;DHT22;33323;52.124;6.018;2023-03-04T07:28:37;5.60;99.90
47600;DHT22;33323;52.124;6.018;2023-03-04T07:31:11;5.70;99.90
47600;DHT22;33323;52.124;6.018;2023-03-04T07:33:49;5.70;99.90
47600;DHT22;33323;52.124;6.018;2023-03-04T07:36:18;5.80;99.90
47600;DHT22;33323;52.124;6.018;2023-03-04T07:38:47;5.80;99.90
47600;DHT22;33323;52.124;6.018;2023-03-04T07:41:17;5.80;99.90
47600;DHT22;33323;52.124;6.018;2023-03-04T07:43:44;5.80;99.90
47600;DHT22;33323;52.124;6.018;2023-03-04T07:46:11;5.80;99.90
47600;DHT22;33323;52.124;6.018;2023-03-04T07:48:39;5.90;99.90
47600;DHT22;33323;52.124;6.018;2023-03-04T07:53:35;6.00;99.90
47600;DHT22;33323;52.124;6.018;2023-03-04T07:56:05;6.00;99.90
47600;DHT22;33323;52.124;6.018;2023-03-04T07:58:32;6.10;99.90
47600;DHT22;33323;52.124;6.018;2023-03-04T08:01:16;6.20;99.90
47600;DHT22;33323;52.124;6.018;2023-03-04T08:03:44;6.20;99.90
47600;DHT22;33323;52.124;6.018;2023-03-04T08:06:14;6.30;99.90
47600;DHT22;33323;52.124;6.018;2023-03-04T08:08:42;6.30;99.90
47600;DHT22;33323;52.124;6.018;2023-03-04T08:11:12;6.40;99.90
47600;DHT22;33323;52.124;6.018;2023-03-04T08:13:44;6.40;99.90
47600;DHT22;33323;52.124;6.018;2023-03-04T08:16:14;6.50;99.90
47600;DHT22;33323;52.124;6.018;2023-03-04T08:18:47;6.50;99.90
47600;DHT22;33323;52.124;6.018;2023-03-04T08:21:18;6.40;99.90
47600;DHT22;33323;52.124;6.018;2023-03-04T08:23:46;6.50;99.90
47600;DHT22;33323;52.124;6.018;2023-03-04T08:26:21;6.50;99.90
47600;DHT22;33323;52.124;6.018;2023-03-04T08:28:54;6.60;99.90
47600;DHT22;33323;52.124;6.018;2023-03-04T08:31:22;6.70;99.90
47600;DHT22;33323;52.124;6.018;2023-03-04T08:33:50;6.70;99.90
47600;DHT22;33323;52.124;6.018;2023-03-04T08:36:18;6.60;99.90
47600;DHT22;33323;52.124;6.018;2023-03-04T08:38:46;6.70;99.90
47600;DHT22;33323;52.124;6.018;2023-03-04T08:41:14;6.80;99.90
47600;DHT22;33323;52.124;6.018;2023-03-04T08:43:43;6.70;99.90
47600;DHT22;33323;52.124;6.018;2023-03-04T08:46:10;6.80;99.90
47600;DHT22;33323;52.124;6.018;2023-03-04T08:48:37;6.80;99.90
47600;DHT22;33323;52.124;6.018;2023-03-04T08:51:09;6.70;99.90
47600;DHT22;33323;52.124;6.018;2023-03-04T08:53:38;6.80;99.90
47600;DHT22;33323;52.124;6.018;2023-03-04T08:56:06;6.80;99.90
47600;DHT22;33323;52.124;6.018;2023-03-04T08:58:34;6.90;99.90
47600;DHT22;33323;52.124;6.018;2023-03-04T09:01:02;6.80;99.90
47600;DHT22;33323;52.124;6.018;2023-03-04T09:03:30;6.90;99.90
47600;DHT22;33323;52.124;6.018;2023-03-04T09:05:57;7.00;99.90
47600;DHT22;33323;52.124;6.018;2023-03-04T09:08:25;7.00;99.90
47600;DHT22;33323;52.124;6.018;2023-03-04T09:10:53;7.00;99.90
47600;DHT22;33323;52.124;6.018;2023-03-04T09:13:22;7.10;99.90
47600;DHT22;33323;52.124;6.018;2023-03-04T09:15:52;7.00;99.90
47600;DHT22;33323;52.124;6.018;2023-03-04T09:18:21;7.00;99.90
47600;DHT22;33323;52.124;6.018;2023-03-04T09:20:49;7.00;99.90
47600;DHT22;33323;52.124;6.018;2023-03-04T09:23:18;7.10;99.90
47600;DHT22;33323;52.124;6.018;2023-03-04T09:25:46;7.20;99.90
47600;DHT22;33323;52.124;6.018;2023-03-04T09:28:13;7.50;99.90
47600;DHT22;33323;52.124;6.018;2023-03-04T09:30:42;7.60;99.90
47600;DHT22;33323;52.124;6.018;2023-03-04T09:33:09;7.60;99.90
47600;DHT22;33323;52.124;6.018;2023-03-04T09:35:37;7.60;99.90
47600;DHT22;33323;52.124;6.018;2023-03-04T09:38:05;7.50;99.90
47600;DHT22;33323;52.124;6.018;2023-03-04T09:40:42;7.40;99.90
47600;DHT22;33323;52.124;6.018;2023-03-04T09:43:18;7.50;99.90
47600;DHT22;33323;52.124;6.018;2023-03-04T09:45:55;7.60;99.90
47600;DHT22;33323;52.124;6.018;2023-03-04T09:48:53;7.80;99.90
47600;DHT22;33323;52.124;6.018;2023-03-04T09:54:33;8.40;99.90
47600;DHT22;33323;52.124;6.018;2023-03-04T10:06:01;8.50;99.90
47600;DHT22;33323;52.124;6.018;2023-03-04T10:11:17;8.20;99.90
47600;DHT22;33323;52.124;6.018;2023-03-04T10:14:03;8.10;99.90
47600;DHT22;33323;52.124;6.018;2023-03-04T10:16:44;7.90;99.90
47600;DHT22;33323;52.124;6.018;2023-03-04T10:22:34;7.60;99.90
47600;DHT22;33323;52.124;6.018;2023-03-04T10:25:22;7.30;99.90
47600;DHT22;33323;52.124;6.018;2023-03-04T10:27:54;7.30;99.90
47600;DHT22;33323;52.124;6.018;2023-03-04T10:30:27;7.30;99.90
47600;DHT22;33323;52.124;6.018;2023-03-04T10:32:59;7.40;99.90
47600;DHT22;33323;52.124;6.018;2023-03-04T10:35:32;7.50;99.90
47600;DHT22;33323;52.124;6.018;2023-03-04T10:38:03;7.80;99.90
47600;DHT22;33323;52.124;6.018;2023-03-04T10:40:39;7.90;99.90
47600;DHT22;33323;52.124;6.018;2023-03-04T10:43:20;8.10;99.90
47600;DHT22;33323;52.124;6.018;2023-03-04T10:45:47;8.50;99.90
47600;DHT22;33323;52.124;6.018;2023-03-04T10:48:26;8.50;99.90
47600;DHT22;33323;52.124;6.018;2023-03-04T10:51:18;8.60;99.90
47600;DHT22;33323;52.124;6.018;2023-03-04T10:53:49;8.60;99.90
47600;DHT22;33323;52.124;6.018;2023-03-04T10:56:39;8.40;99.90
47600;DHT22;33323;52.124;6.018;2023-03-04T11:04:55;8.00;99.90
47600;DHT22;33323;52.124;6.018;2023-03-04T11:07:54;7.90;99.90
47600;DHT22;33323;52.124;6.018;2023-03-04T11:10:43;8.00;99.90
47600;DHT22;33323;52.124;6.018;2023-03-04T11:13:12;8.20;99.90
47600;DHT22;33323;52.124;6.018;2023-03-04T11:15:58;8.20;99.90
47600;DHT22;33323;52.124;6.018;2023-03-04T11:21:02;8.30;99.90
47600;DHT22;33323;52.124;6.018;2023-03-04T11:23:45;8.40;99.90
47600;DHT22;33323;52.124;6.018;2023-03-04T11:26:22;8.40;99.90
47600;DHT22;33323;52.124;6.018;2023-03-04T11:32:04;9.50;99.90
47600;DHT22;33323;52.124;6.018;2023-03-04T11:35:00;9.10;99.90
47600;DHT22;33323;52.124;6.018;2023-03-04T11:38:22;8.90;99.90
47600;DHT22;33323;52.124;6.018;2023-03-04T11:40:59;8.70;99.90
47600;DHT22;33323;52.124;6.018;2023-03-04T11:43:38;8.40;99.90
47600;DHT22;33323;52.124;6.018;2023-03-04T12:00:53;8.00;99.90
47600;DHT22;33323;52.124;6.018;2023-03-04T12:15:05;7.50;99.90
47600;DHT22;33323;52.124;6.018;2023-03-04T12:20:56;7.10;99.90
47600;DHT22;33323;52.124;6.018;2023-03-04T12:26:52;7.10;99.90
47600;DHT22;33323;52.124;6.018;2023-03-04T12:33:09;7.30;99.90
47600;DHT22;33323;52.124;6.018;2023-03-04T12:38:39;7.40;99.90
47600;DHT22;33323;52.124;6.018;2023-03-04T12:42:04;7.50;99.90
47600;DHT22;33323;52.124;6.018;2023-03-04T12:47:52;7.80;99.90
47600;DHT22;33323;52.124;6.018;2023-03-04T12:57:09;8.70;99.90
47600;DHT22;33323;52.124;6.018;2023-03-04T13:02:46;9.00;99.90
47600;DHT22;33323;52.124;6.018;2023-03-04T13:06:14;8.60;99.90
47600;DHT22;33323;52.124;6.018;2023-03-04T13:16:45;7.90;99.90
47600;DHT22;33323;52.124;6.018;2023-03-04T13:25:31;7.70;99.90
47600;DHT22;33323;52.124;6.018;2023-03-04T13:35:46;7.90;99.90
47600;DHT22;33323;52.124;6.018;2023-03-04T13:43:55;8.10;99.90
47600;DHT22;33323;52.124;6.018;2023-03-04T13:54:14;8.50;99.90
47600;DHT22;33323;52.124;6.018;2023-03-04T13:59:25;8.20;99.90
47600;DHT22;33323;52.124;6.018;2023-03-04T14:04:40;8.10;99.90
47600;DHT22;33323;52.124;6.018;2023-03-04T14:10:04;8.20;99.90
47600;DHT22;33323;52.124;6.018;2023-03-04T14:12:54;8.10;99.90
47600;DHT22;33323;52.124;6.018;2023-03-04T14:15:27;8.10;99.90
47600;DHT22;33323;52.124;6.018;2023-03-04T14:17:57;8.10;99.90
47600;DHT22;33323;52.124;6.018;2023-03-04T14:23:21;7.90;99.90
47600;DHT22;33323;52.124;6.018;2023-03-04T14:25:50;7.90;99.90
47600;DHT22;33323;52.124;6.018;2023-03-04T14:28:19;7.90;99.90
47600;DHT22;33323;52.124;6.018;2023-03-04T14:30:54;7.90;99.90
47600;DHT22;33323;52.124;6.018;2023-03-04T14:33:27;8.00;99.90
47600;DHT22;33323;52.124;6.018;2023-03-04T14:35:58;8.10;99.90
47600;DHT22;33323;52.124;6.018;2023-03-04T14:38:33;8.20;99.90
47600;DHT22;33323;52.124;6.018;2023-03-04T14:41:17;8.10;99.90
47600;DHT22;33323;52.124;6.018;2023-03-04T14:43:55;8.20;99.90
47600;DHT22;33323;52.124;6.018;2023-03-04T14:46:46;8.20;99.90
47600;DHT22;33323;52.124;6.018;2023-03-04T14:49:34;8.10;99.90
47600;DHT22;33323;52.124;6.018;2023-03-04T14:52:02;8.00;99.90
47600;DHT22;33323;52.124;6.018;2023-03-04T14:54:42;8.00;99.90
47600;DHT22;33323;52.124;6.018;2023-03-04T14:59:47;7.80;99.90
47600;DHT22;33323;52.124;6.018;2023-03-04T15:05:06;7.80;99.90
47600;DHT22;33323;52.124;6.018;2023-03-04T15:07:48;7.70;99.90
47600;DHT22;33323;52.124;6.018;2023-03-04T15:10:30;7.60;99.90
47600;DHT22;33323;52.124;6.018;2023-03-04T15:13:02;7.60;99.90
47600;DHT22;33323;52.124;6.018;2023-03-04T15:15:58;7.50;99.90
47600;DHT22;33323;52.124;6.018;2023-03-04T15:18:27;7.40;99.90
47600;DHT22;33323;52.124;6.018;2023-03-04T15:23:54;7.50;99.90
47600;DHT22;33323;52.124;6.018;2023-03-04T15:26:21;7.50;99.90
47600;DHT22;33323;52.124;6.018;2023-03-04T15:28:48;7.40;99.90
47600;DHT22;33323;52.124;6.018;2023-03-04T15:31:17;7.50;99.90
47600;DHT22;33323;52.124;6.018;2023-03-04T15:33:46;7.40;99.90
47600;DHT22;33323;52.124;6.018;2023-03-04T15:36:17;7.40;99.90
47600;DHT22;33323;52.124;6.018;2023-03-04T15:38:50;7.40;99.90
47600;DHT22;33323;52.124;6.018;2023-03-04T15:41:27;7.40;99.90
47600;DHT22;33323;52.124;6.018;2023-03-04T15:43:54;7.50;99.90
47600;DHT22;33323;52.124;6.018;2023-03-04T15:46:21;7.40;99.90
47600;DHT22;33323;52.124;6.018;2023-03-04T15:48:49;7.40;99.90
47600;DHT22;33323;52.124;6.018;2023-03-04T15:51:22;7.30;99.90
47600;DHT22;33323;52.124;6.018;2023-03-04T15:53:51;7.40;99.90
47600;DHT22;33323;52.124;6.018;2023-03-04T15:56:23;7.30;99.90
47600;DHT22;33323;52.124;6.018;2023-03-04T15:59:12;7.30;99.90
47600;DHT22;33323;52.124;6.018;2023-03-04T16:01:41;7.30;99.90
47600;DHT22;33323;52.124;6.018;2023-03-04T16:04:14;7.30;99.90
47600;DHT22;33323;52.124;6.018;2023-03-04T16:06:43;7.20;99.90
47600;DHT22;33323;52.124;6.018;2023-03-04T16:09:13;7.20;99.90
47600;DHT22;33323;52.124;6.018;2023-03-04T16:11:43;7.20;99.90
47600;DHT22;33323;52.124;6.018;2023-03-04T16:14:14;7.20;99.90
47600;DHT22;33323;52.124;6.018;2023-03-04T16:16:42;7.10;99.90
47600;DHT22;33323;52.124;6.018;2023-03-04T16:19:10;7.10;99.90
47600;DHT22;33323;52.124;6.018;2023-03-04T16:21:37;7.10;99.90
47600;DHT22;33323;52.124;6.018;2023-03-04T16:24:05;7.20;99.90
47600;DHT22;33323;52.124;6.018;2023-03-04T16:26:32;7.10;99.90
47600;DHT22;33323;52.124;6.018;2023-03-04T16:29:00;7.10;99.90
47600;DHT22;33323;52.124;6.018;2023-03-04T16:31:29;7.10;99.90
47600;DHT22;33323;52.124;6.018;2023-03-04T16:33:56;7.00;99.90
47600;DHT22;33323;52.124;6.018;2023-03-04T16:36:25;6.90;99.90
47600;DHT22;33323;52.124;6.018;2023-03-04T16:38:55;6.90;99.90
47600;DHT22;33323;52.124;6.018;2023-03-04T16:41:26;6.90;99.90
47600;DHT22;33323;52.124;6.018;2023-03-04T16:43:54;6.90;99.90
47600;DHT22;33323;52.124;6.018;2023-03-04T16:46:22;6.90;99.90
47600;DHT22;33323;52.124;6.018;2023-03-04T16:48:49;6.80;99.90
47600;DHT22;33323;52.124;6.018;2023-03-04T16:51:19;6.80;99.90
47600;DHT22;33323;52.124;6.018;2023-03-04T16:53:52;6.80;99.90
47600;DHT22;33323;52.124;6.018;2023-03-04T16:56:22;6.80;99.90
47600;DHT22;33323;52.124;6.018;2023-03-04T16:58:49;6.70;99.90
47600;DHT22;33323;52.124;6.018;2023-03-04T17:01:23;6.60;99.90
47600;DHT22;33323;52.124;6.018;2023-03-04T17:03:52;6.60;99.90
47600;DHT22;33323;52.124;6.018;2023-03-04T17:06:21;6.60;99.90
47600;DHT22;33323;52.124;6.018;2023-03-04T17:08:49;6.50;99.90
47600;DHT22;33323;52.124;6.018;2023-03-04T17:11:19;6.50;99.90
47600;DHT22;33323;52.124;6.018;2023-03-04T17:13:48;6.40;99.90
47600;DHT22;33323;52.124;6.018;2023-03-04T17:16:16;6.40;99.90
47600;DHT22;33323;52.124;6.018;2023-03-04T17:18:44;6.40;99.90
47600;DHT22;33323;52.124;6.018;2023-03-04T17:21:17;6.30;99.90
47600;DHT22;33323;52.124;6.018;2023-03-04T17:23:46;6.20;99.90
47600;DHT22;33323;52.124;6.018;2023-03-04T17:26:13;6.20;99.90
47600;DHT22;33323;52.124;6.018;2023-03-04T17:28:42;6.20;99.90
47600;DHT22;33323;52.124;6.018;2023-03-04T17:31:12;6.10;99.90
47600;DHT22;33323;52.124;6.018;2023-03-04T17:33:41;6.10;99.90
47600;DHT22;33323;52.124;6.018;2023-03-04T17:36:11;6.10;99.90
47600;DHT22;33323;52.124;6.018;2023-03-04T17:38:39;6.00;99.90
47600;DHT22;33323;52.124;6.018;2023-03-04T17:41:10;6.00;99.90
47600;DHT22;33323;52.124;6.018;2023-03-04T17:43:48;6.00;99.90
47600;DHT22;33323;52.124;6.018;2023-03-04T17:46:18;6.00;99.90
47600;DHT22;33323;52.124;6.018;2023-03-04T17:48:47;6.00;99.90
47600;DHT22;33323;52.124;6.018;2023-03-04T17:51:14;6.00;99.90
47600;DHT22;33323;52.124;6.018;2023-03-04T17:53:42;5.90;99.90
47600;DHT22;33323;52.124;6.018;2023-03-04T17:56:10;5.90;99.90
47600;DHT22;33323;52.124;6.018;2023-03-04T17:58:38;5.80;99.90
47600;DHT22;33323;52.124;6.018;2023-03-04T18:01:17;5.70;99.90
47600;DHT22;33323;52.124;6.018;2023-03-04T18:03:46;5.60;99.90
47600;DHT22;33323;52.124;6.018;2023-03-04T18:06:13;5.70;99.90
47600;DHT22;33323;52.124;6.018;2023-03-04T18:08:40;5.70;99.90
47600;DHT22;33323;52.124;6.018;2023-03-04T18:11:08;5.70;99.90
47600;DHT22;33323;52.124;6.018;2023-03-04T18:13:37;5.60;99.90
47600;DHT22;33323;52.124;6.018;2023-03-04T18:16:04;5.60;99.90
47600;DHT22;33323;52.124;6.018;2023-03-04T18:18:32;5.60;99.90
47600;DHT22;33323;52.124;6.018;2023-03-04T18:21:00;5.60;99.90
47600;DHT22;33323;52.124;6.018;2023-03-04T18:23:27;5.50;99.90
47600;DHT22;33323;52.124;6.018;2023-03-04T18:25:56;5.50;99.90
47600;DHT22;33323;52.124;6.018;2023-03-04T18:28:23;5.40;99.90